createdAt,value
2022-11-17T00:02:08.745Z,64.80
2022-11-17T00:04:35.323Z,64.70
2022-11-17T00:07:01.921Z,64.80
2022-11-17T00:09:28.517Z,65.50
2022-11-17T00:12:13.558Z,64.70
2022-11-17T00:14:41.219Z,64.80
2022-11-17T00:17:10.488Z,64.80
2022-11-17T00:19:56.238Z,64.70
2022-11-17T00:22:23.342Z,64.70
2022-11-17T00:24:50.143Z,64.70
2022-11-17T00:27:16.884Z,64.70
2022-11-17T00:29:43.472Z,64.70
2022-11-17T00:32:33.357Z,64.70
2022-11-17T00:35:00.341Z,64.60
2022-11-17T00:37:33.175Z,64.60
2022-11-17T00:40:01.280Z,64.50
2022-11-17T00:42:28.076Z,64.50
2022-11-17T00:44:54.683Z,64.50
2022-11-17T00:47:21.288Z,64.50
2022-11-17T00:49:47.936Z,63.90
2022-11-17T00:52:14.642Z,64.50
2022-11-17T00:54:41.239Z,64.50
2022-11-17T00:57:07.851Z,64.50
2022-11-17T00:59:34.430Z,64.50
2022-11-17T01:02:01.092Z,64.50
2022-11-17T01:04:27.794Z,64.50
2022-11-17T01:06:54.420Z,64.40
2022-11-17T01:09:23.313Z,64.40
2022-11-17T01:11:52.378Z,64.40
2022-11-17T01:14:27.796Z,64.50
2022-11-17T01:16:55.065Z,64.50
2022-11-17T01:19:23.013Z,64.50
2022-11-17T01:21:49.816Z,65.20
2022-11-17T01:24:17.758Z,64.40
2022-11-17T01:26:45.432Z,65.10
2022-11-17T01:29:14.511Z,64.40
2022-11-17T01:31:45.393Z,64.40
2022-11-17T01:34:12.648Z,64.40
2022-11-17T01:37:00.290Z,64.40
2022-11-17T01:39:28.685Z,64.40
2022-11-17T01:41:56.191Z,64.40
2022-11-17T01:44:41.596Z,64.40
2022-11-17T01:47:16.466Z,66.40
2022-11-17T01:49:44.265Z,64.40
2022-11-17T01:52:12.405Z,64.40
2022-11-17T01:54:41.027Z,64.40
2022-11-17T01:57:14.327Z,64.40
2022-11-17T01:59:46.204Z,64.40
2022-11-17T02:02:12.806Z,64.40
2022-11-17T02:04:56.624Z,64.40
2022-11-17T02:07:28.137Z,64.40
2022-11-17T02:09:56.101Z,64.40
2022-11-17T02:12:26.314Z,64.40
2022-11-17T02:14:54.537Z,64.40
2022-11-17T02:17:23.629Z,64.40
2022-11-17T02:20:01.377Z,64.40
2022-11-17T02:22:55.779Z,64.40
2022-11-17T02:25:26.858Z,64.40
2022-11-17T02:28:08.840Z,64.40
2022-11-17T02:30:48.921Z,64.40
2022-11-17T02:33:30.209Z,64.40
2022-11-17T02:36:16.698Z,64.40
2022-11-17T02:39:18.085Z,64.40
2022-11-17T02:42:04.694Z,64.40
2022-11-17T02:44:56.229Z,64.40
2022-11-17T02:47:28.282Z,64.40
2022-11-17T02:50:02.802Z,64.40
2022-11-17T02:52:30.876Z,64.40
2022-11-17T02:55:02.660Z,64.40
2022-11-17T02:57:31.362Z,64.40
2022-11-17T03:00:05.696Z,63.80
2022-11-17T03:02:44.821Z,64.40
2022-11-17T03:05:18.727Z,64.40
2022-11-17T03:08:14.968Z,64.40
2022-11-17T03:11:02.807Z,64.40
2022-11-17T03:13:32.614Z,64.40
2022-11-17T03:16:23.840Z,64.40
2022-11-17T03:19:11.900Z,64.40
2022-11-17T03:21:47.347Z,64.40
2022-11-17T03:24:17.064Z,64.40
2022-11-17T03:26:50.409Z,64.40
2022-11-17T03:29:20.792Z,63.80
2022-11-17T03:31:50.188Z,64.40
2022-11-17T03:34:22.704Z,64.40
2022-11-17T03:36:53.328Z,64.30
2022-11-17T03:39:26.350Z,63.70
2022-11-17T03:41:58.552Z,64.40
2022-11-17T03:44:29.066Z,64.40
2022-11-17T03:46:59.177Z,64.30
2022-11-17T03:49:38.481Z,64.30
2022-11-17T03:52:05.331Z,64.30
2022-11-17T03:54:32.645Z,64.30
2022-11-17T03:57:09.977Z,64.30
2022-11-17T03:59:56.942Z,64.30
2022-11-17T04:02:25.788Z,64.30
2022-11-17T04:05:08.367Z,64.30
2022-11-17T04:07:42.176Z,64.30
2022-11-17T04:10:14.489Z,64.30
2022-11-17T04:12:59.820Z,64.30
2022-11-17T04:15:52.492Z,64.30
2022-11-17T04:18:19.909Z,63.70
2022-11-17T04:20:50.566Z,64.30
2022-11-17T04:23:17.268Z,64.40
2022-11-17T04:26:08.391Z,64.30
2022-11-17T04:28:37.664Z,64.40
2022-11-17T04:31:08.433Z,64.40
2022-11-17T04:33:36.628Z,64.40
2022-11-17T04:36:04.452Z,64.40
2022-11-17T04:38:31.086Z,64.40
2022-11-17T04:41:24.773Z,64.40
2022-11-17T04:43:51.965Z,64.40
2022-11-17T04:46:19.945Z,64.50
2022-11-17T04:48:47.708Z,64.50
2022-11-17T04:51:16.125Z,64.40
2022-11-17T04:53:44.025Z,64.40
2022-11-17T04:56:11.319Z,64.40
2022-11-17T04:58:37.988Z,63.80
2022-11-17T05:01:13.686Z,64.40
2022-11-17T05:03:49.003Z,64.30
2022-11-17T05:06:18.305Z,64.30
2022-11-17T05:08:45.317Z,64.40
2022-11-17T05:11:31.891Z,64.30
2022-11-17T05:13:59.087Z,64.30
2022-11-17T05:16:44.764Z,64.40
2022-11-17T05:19:20.622Z,64.30
2022-11-17T05:21:47.271Z,64.40
2022-11-17T05:24:16.914Z,64.50
2022-11-17T05:26:44.925Z,64.40
2022-11-17T05:29:13.436Z,64.50
2022-11-17T05:31:40.331Z,64.50
2022-11-17T05:34:08.971Z,64.60
2022-11-17T05:36:36.008Z,64.60
2022-11-17T05:39:02.885Z,64.70
2022-11-17T05:41:29.710Z,64.70
2022-11-17T05:43:57.110Z,64.70
2022-11-17T05:46:24.612Z,64.80
2022-11-17T05:48:52.061Z,64.80
2022-11-17T05:51:23.539Z,64.80
2022-11-17T05:53:50.855Z,64.80
2022-11-17T05:56:38.021Z,64.80
2022-11-17T05:59:40.030Z,64.80
2022-11-17T06:02:15.928Z,64.90
2022-11-17T06:04:43.641Z,64.80
2022-11-17T06:07:10.641Z,64.20
2022-11-17T06:09:41.344Z,64.90
2022-11-17T06:12:08.065Z,64.90
2022-11-17T06:14:35.388Z,64.90
2022-11-17T06:17:05.740Z,64.90
2022-11-17T06:19:37.619Z,64.90
2022-11-17T06:22:12.317Z,64.80
2022-11-17T06:24:40.499Z,64.80
2022-11-17T06:27:07.253Z,64.90
2022-11-17T06:29:34.764Z,65.00
2022-11-17T06:32:02.823Z,65.00
2022-11-17T06:34:31.717Z,65.10
2022-11-17T06:36:58.416Z,65.20
2022-11-17T06:39:25.080Z,65.20
2022-11-17T06:41:51.656Z,65.20
2022-11-17T06:44:18.281Z,65.20
2022-11-17T06:46:48.827Z,65.30
2022-11-17T06:49:16.093Z,64.60
2022-11-17T06:51:45.312Z,65.30
2022-11-17T06:54:14.606Z,65.30
2022-11-17T06:56:42.448Z,65.20
2022-11-17T06:59:09.162Z,65.30
2022-11-17T07:01:37.293Z,65.30
2022-11-17T07:04:04.088Z,65.30
2022-11-17T07:06:31.814Z,65.20
2022-11-17T07:08:58.451Z,65.20
2022-11-17T07:11:25.114Z,65.20
2022-11-17T07:13:51.790Z,67.20
2022-11-17T07:16:23.897Z,65.10
2022-11-17T07:18:54.546Z,65.10
2022-11-17T07:21:22.391Z,65.20
2022-11-17T07:23:49.025Z,65.20
2022-11-17T07:26:15.650Z,65.30
2022-11-17T07:28:42.278Z,65.30
2022-11-17T07:31:09.588Z,66.00
2022-11-17T07:33:36.727Z,65.30
2022-11-17T07:36:11.570Z,65.30
2022-11-17T07:38:40.187Z,65.30
2022-11-17T07:41:09.710Z,65.40
2022-11-17T07:43:36.641Z,65.30
2022-11-17T07:46:08.374Z,65.30
2022-11-17T07:48:35.384Z,65.40
2022-11-17T07:51:03.718Z,65.30
2022-11-17T07:53:32.337Z,65.30
2022-11-17T07:56:10.272Z,65.40
2022-11-17T07:58:38.044Z,65.30
2022-11-17T08:01:06.436Z,65.40
2022-11-17T08:03:33.421Z,65.30
2022-11-17T08:06:04.394Z,65.40
2022-11-17T08:08:31.321Z,65.30
2022-11-17T08:11:05.966Z,65.30
2022-11-17T08:13:33.590Z,65.40
2022-11-17T08:16:00.892Z,65.40
2022-11-17T08:18:29.148Z,65.30
2022-11-17T08:21:10.013Z,65.40
2022-11-17T08:23:37.562Z,65.40
2022-11-17T08:26:05.152Z,65.40
2022-11-17T08:28:33.319Z,65.40
2022-11-17T08:31:05.024Z,65.50
2022-11-17T08:33:32.375Z,65.40
2022-11-17T08:36:00.391Z,65.50
2022-11-17T08:38:29.077Z,65.50
2022-11-17T08:41:01.827Z,65.50
2022-11-17T08:43:29.115Z,65.50
2022-11-17T08:45:56.014Z,65.50
2022-11-17T08:48:23.271Z,65.60
2022-11-17T08:50:50.325Z,65.60
2022-11-17T08:53:19.404Z,65.60
2022-11-17T08:55:46.619Z,65.70
2022-11-17T08:58:13.420Z,65.70
2022-11-17T09:00:41.072Z,65.70
2022-11-17T09:03:08.904Z,66.50
2022-11-17T09:05:40.445Z,65.70
2022-11-17T09:08:37.912Z,65.80
2022-11-17T09:10:54.976Z,65.90
2022-11-17T09:13:21.621Z,65.90
2022-11-17T09:15:48.255Z,65.90
2022-11-17T09:18:17.335Z,65.90
2022-11-17T09:20:45.900Z,66.70
2022-11-17T09:23:12.850Z,66.10
2022-11-17T09:25:39.832Z,66.10
2022-11-17T09:28:06.426Z,66.10
2022-11-17T09:30:33.031Z,66.00
2022-11-17T09:32:59.674Z,66.10
2022-11-17T09:35:26.298Z,66.80
2022-11-17T09:37:52.896Z,66.10
2022-11-17T09:40:20.901Z,66.10
2022-11-17T09:42:47.755Z,66.10
2022-11-17T09:45:25.682Z,66.10
2022-11-17T09:48:45.336Z,66.40
2022-11-17T09:51:16.710Z,66.30
2022-11-17T09:53:54.006Z,66.30
2022-11-17T09:56:21.557Z,66.30
2022-11-17T09:58:55.021Z,65.70
2022-11-17T10:01:22.869Z,66.40
2022-11-17T10:03:51.011Z,66.40
2022-11-17T10:06:21.503Z,66.30
2022-11-17T10:09:04.041Z,66.30
2022-11-17T10:11:34.792Z,66.30
2022-11-17T10:14:16.047Z,66.40
2022-11-17T10:16:52.533Z,66.30
2022-11-17T10:19:24.343Z,65.80
2022-11-17T10:22:10.749Z,66.40
2022-11-17T10:24:42.736Z,66.40
2022-11-17T10:27:18.444Z,66.40
2022-11-17T10:30:19.008Z,66.40
2022-11-17T10:32:52.015Z,66.40
2022-11-17T10:35:21.967Z,66.40
2022-11-17T10:38:08.102Z,66.40
2022-11-17T10:40:40.769Z,66.40
2022-11-17T10:43:13.332Z,66.50
2022-11-17T10:46:03.946Z,66.40
2022-11-17T10:48:34.215Z,66.40
2022-11-17T10:51:10.416Z,66.40
2022-11-17T10:53:45.527Z,66.40
2022-11-17T10:56:16.952Z,66.40
2022-11-17T10:59:16.180Z,65.90
2022-11-17T11:01:45.154Z,66.60
2022-11-17T11:04:39.477Z,66.40
2022-11-17T11:07:21.223Z,66.60
2022-11-17T11:09:50.933Z,66.60
2022-11-17T11:12:24.985Z,66.50
2022-11-17T11:14:55.872Z,66.50
2022-11-17T11:17:22.498Z,66.50
2022-11-17T11:19:52.568Z,66.50
2022-11-17T11:22:46.986Z,66.50
2022-11-17T11:25:25.290Z,66.50
2022-11-17T11:28:15.037Z,65.90
2022-11-17T11:31:00.563Z,65.90
2022-11-17T11:33:48.082Z,66.50
2022-11-17T11:36:50.170Z,66.60
2022-11-17T11:39:49.915Z,66.60
2022-11-17T11:42:28.298Z,66.60
2022-11-17T11:45:07.672Z,66.70
2022-11-17T11:47:37.229Z,66.60
2022-11-17T11:50:25.841Z,66.70
2022-11-17T11:53:13.280Z,66.70
2022-11-17T11:55:41.667Z,66.70
2022-11-17T11:58:21.693Z,66.70
2022-11-17T12:00:52.093Z,66.70
2022-11-17T12:03:26.220Z,66.60
2022-11-17T12:05:58.377Z,66.70
2022-11-17T12:08:55.874Z,66.10
2022-11-17T12:11:41.507Z,66.60
2022-11-17T12:14:17.033Z,66.70
2022-11-17T12:16:44.645Z,66.70
2022-11-17T12:19:53.262Z,66.80
2022-11-17T12:22:34.372Z,66.80
2022-11-17T12:25:21.110Z,66.80
2022-11-17T12:27:50.334Z,66.70
2022-11-17T12:30:36.571Z,66.80
2022-11-17T12:33:05.865Z,66.80
2022-11-17T12:35:34.759Z,66.80
2022-11-17T12:38:16.368Z,66.80
2022-11-17T12:40:50.981Z,66.80
2022-11-17T12:43:25.637Z,66.80
2022-11-17T12:46:13.119Z,66.90
2022-11-17T12:49:06.751Z,66.80
2022-11-17T12:51:41.858Z,66.80
2022-11-17T12:54:35.951Z,66.80
2022-11-17T12:57:19.871Z,66.70
2022-11-17T13:00:19.351Z,66.80
2022-11-17T13:03:00.510Z,66.80
2022-11-17T13:05:30.048Z,66.80
2022-11-17T13:08:19.824Z,66.90
2022-11-17T13:10:46.610Z,66.90
2022-11-17T13:13:23.676Z,66.90
2022-11-17T13:16:01.060Z,66.90
2022-11-17T13:18:37.553Z,66.90
2022-11-17T13:21:15.093Z,67.00
2022-11-17T13:23:44.997Z,66.90
2022-11-17T13:26:20.927Z,66.90
2022-11-17T13:28:48.926Z,66.90
2022-11-17T13:31:21.260Z,67.00
2022-11-17T13:34:04.902Z,66.90
2022-11-17T13:36:31.890Z,66.90
2022-11-17T13:39:01.777Z,67.00
2022-11-17T13:41:39.014Z,67.10
2022-11-17T13:44:08.466Z,68.20
2022-11-17T13:46:36.031Z,67.10
2022-11-17T13:49:38.151Z,67.20
2022-11-17T13:52:40.731Z,67.10
2022-11-17T13:55:19.906Z,67.10
2022-11-17T13:58:01.596Z,67.10
2022-11-17T14:00:29.153Z,67.20
2022-11-17T14:03:00.048Z,67.20
2022-11-17T14:05:31.125Z,67.20
2022-11-17T14:08:10.194Z,67.10
2022-11-17T14:10:38.529Z,67.20
2022-11-17T14:13:05.096Z,67.20
2022-11-17T14:15:42.039Z,67.20
2022-11-17T14:18:27.082Z,67.20
2022-11-17T14:21:17.185Z,66.60
2022-11-17T14:23:44.581Z,67.30
2022-11-17T14:26:22.563Z,67.20
2022-11-17T14:28:50.447Z,66.60
2022-11-17T14:31:17.235Z,66.60
2022-11-17T14:33:44.717Z,67.30
2022-11-17T14:36:17.885Z,67.20
2022-11-17T14:38:45.843Z,67.30
2022-11-17T14:41:15.514Z,67.30
2022-11-17T14:43:42.125Z,67.30
2022-11-17T14:46:18.635Z,67.40
2022-11-17T14:48:45.536Z,67.30
2022-11-17T14:51:12.161Z,67.30
2022-11-17T14:53:41.932Z,67.40
2022-11-17T14:56:09.916Z,67.30
2022-11-17T14:58:36.758Z,67.40
2022-11-17T15:01:15.737Z,67.50
2022-11-17T15:03:42.461Z,67.50
2022-11-17T15:06:12.104Z,67.50
2022-11-17T15:08:41.889Z,67.40
2022-11-17T15:11:15.849Z,67.50
2022-11-17T15:13:43.123Z,67.60
2022-11-17T15:16:10.014Z,67.60
2022-11-17T15:18:36.657Z,67.60
2022-11-17T15:21:05.590Z,67.60
2022-11-17T15:23:33.230Z,67.60
2022-11-17T15:26:03.791Z,67.50
2022-11-17T15:28:30.779Z,67.60
2022-11-17T15:30:57.577Z,67.70
2022-11-17T15:33:24.563Z,67.60
2022-11-17T15:36:05.454Z,67.50
2022-11-17T15:38:35.329Z,67.50
2022-11-17T15:41:01.948Z,67.00
2022-11-17T15:43:30.265Z,67.60
2022-11-17T15:46:04.461Z,67.70
2022-11-17T15:48:35.083Z,67.70
2022-11-17T15:51:05.405Z,67.10
2022-11-17T15:53:35.070Z,67.80
2022-11-17T15:56:06.005Z,67.70
2022-11-17T15:58:32.697Z,67.70
2022-11-17T16:01:12.736Z,67.80
2022-11-17T16:03:41.371Z,67.70
2022-11-17T16:06:09.329Z,67.80
2022-11-17T16:08:36.670Z,67.90
2022-11-17T16:11:04.334Z,67.90
2022-11-17T16:13:31.542Z,67.90
2022-11-17T16:15:58.311Z,67.90
2022-11-17T16:18:25.562Z,68.00
2022-11-17T16:20:52.537Z,68.00
2022-11-17T16:23:19.318Z,68.00
2022-11-17T16:25:48.195Z,68.40
2022-11-17T16:28:16.639Z,68.00
2022-11-17T16:30:43.377Z,67.50
2022-11-17T16:33:13.550Z,68.00
2022-11-17T16:35:45.310Z,68.10
2022-11-17T16:38:21.006Z,68.00
2022-11-17T16:40:47.648Z,68.10
2022-11-17T16:43:14.306Z,68.10
2022-11-17T16:45:45.557Z,68.00
2022-11-17T16:48:12.810Z,68.10
2022-11-17T16:50:41.043Z,68.00
2022-11-17T16:53:07.775Z,68.00
2022-11-17T16:55:37.906Z,68.00
2022-11-17T16:58:06.254Z,68.00
2022-11-17T17:00:34.797Z,68.70
2022-11-17T17:03:02.088Z,68.00
2022-11-17T17:05:31.827Z,68.00
2022-11-17T17:07:58.428Z,68.00
2022-11-17T17:10:25.043Z,68.10
2022-11-17T17:12:51.908Z,67.90
2022-11-17T17:15:18.556Z,68.00
2022-11-17T17:17:45.160Z,67.80
2022-11-17T17:20:13.806Z,67.40
2022-11-17T17:22:40.594Z,68.00
2022-11-17T17:25:07.966Z,68.00
2022-11-17T17:27:34.552Z,68.00
2022-11-17T17:30:01.146Z,68.00
2022-11-17T17:32:27.747Z,68.00
2022-11-17T17:34:54.485Z,68.00
2022-11-17T17:37:21.083Z,68.00
2022-11-17T17:39:47.675Z,68.10
2022-11-17T17:42:14.345Z,68.10
2022-11-17T17:44:40.940Z,68.20
2022-11-17T17:47:07.578Z,68.30
2022-11-17T17:49:34.230Z,68.30
2022-11-17T17:52:00.931Z,68.30
2022-11-17T17:54:27.537Z,68.20
2022-11-17T17:56:54.212Z,68.90
2022-11-17T17:59:20.891Z,68.20
2022-11-17T18:01:48.005Z,68.20
2022-11-17T18:04:16.586Z,68.30
2022-11-17T18:06:48.043Z,68.20
2022-11-17T18:09:18.788Z,68.20
2022-11-17T18:11:49.219Z,68.20
2022-11-17T18:14:23.624Z,68.30
2022-11-17T18:16:51.327Z,68.10
2022-11-17T18:19:18.646Z,67.60
2022-11-17T18:21:45.507Z,68.20
2022-11-17T18:24:12.921Z,68.30
2022-11-17T18:26:40.968Z,68.30
2022-11-17T18:29:14.808Z,68.40
2022-11-17T18:31:42.408Z,68.40
2022-11-17T18:34:15.058Z,68.30
2022-11-17T18:36:41.671Z,68.30
2022-11-17T18:39:09.388Z,68.30
2022-11-17T18:41:36.740Z,68.40
2022-11-17T18:44:03.878Z,68.40
2022-11-17T18:46:31.501Z,68.30
2022-11-17T18:48:59.053Z,68.40
2022-11-17T18:51:28.639Z,68.40
2022-11-17T18:53:57.347Z,68.40
2022-11-17T18:56:28.501Z,68.40
2022-11-17T18:58:55.193Z,68.40
2022-11-17T19:01:24.252Z,68.40
2022-11-17T19:03:53.432Z,68.40
2022-11-17T19:06:22.125Z,68.40
2022-11-17T19:08:49.125Z,68.40
2022-11-17T19:11:17.098Z,68.40
2022-11-17T19:13:44.594Z,68.40
2022-11-17T19:16:20.556Z,68.40
2022-11-17T19:18:49.057Z,68.40
2022-11-17T19:21:30.534Z,68.40
2022-11-17T19:23:59.109Z,68.40
2022-11-17T19:26:31.616Z,68.40
2022-11-17T19:29:00.848Z,68.40
2022-11-17T19:31:28.120Z,68.40
2022-11-17T19:33:56.172Z,68.40
2022-11-17T19:36:25.167Z,68.30
2022-11-17T19:38:53.608Z,68.40
2022-11-17T19:41:40.477Z,68.40
2022-11-17T19:44:08.681Z,68.40
2022-11-17T19:46:36.161Z,68.40
2022-11-17T19:49:03.836Z,68.30
2022-11-17T19:51:36.770Z,68.40
2022-11-17T19:54:06.112Z,68.20
2022-11-17T19:56:32.901Z,68.20
2022-11-17T19:58:59.551Z,68.20
2022-11-17T20:01:27.848Z,68.10
2022-11-17T20:03:56.033Z,68.10
2022-11-17T20:06:27.033Z,68.10
2022-11-17T20:08:55.022Z,68.10
2022-11-17T20:11:24.056Z,68.10
2022-11-17T20:13:51.066Z,68.10
2022-11-17T20:16:24.649Z,67.90
2022-11-17T20:18:54.014Z,67.90
2022-11-17T20:21:20.981Z,67.90
2022-11-17T20:23:48.170Z,67.90
2022-11-17T20:26:23.705Z,67.90
2022-11-17T20:28:51.151Z,67.90
2022-11-17T20:31:24.209Z,67.30
2022-11-17T20:33:52.052Z,68.00
2022-11-17T20:36:21.316Z,68.40
2022-11-17T20:38:56.142Z,68.00
2022-11-17T20:41:23.631Z,67.90
2022-11-17T20:43:52.300Z,67.90
2022-11-17T20:46:19.885Z,67.90
2022-11-17T20:48:47.035Z,67.90
2022-11-17T20:51:19.224Z,67.90
2022-11-17T20:53:46.418Z,67.90
2022-11-17T20:56:15.960Z,67.90
2022-11-17T20:58:44.989Z,67.90
2022-11-17T21:01:14.586Z,67.20
2022-11-17T21:03:42.100Z,67.80
2022-11-17T21:06:09.321Z,67.80
2022-11-17T21:08:38.419Z,67.80
2022-11-17T21:11:10.457Z,67.80
2022-11-17T21:13:37.978Z,67.80
2022-11-17T21:16:13.790Z,67.80
2022-11-17T21:18:46.117Z,67.70
2022-11-17T21:21:12.733Z,67.10
2022-11-17T21:23:40.252Z,67.70
2022-11-17T21:26:12.282Z,67.70
2022-11-17T21:28:39.752Z,67.10
2022-11-17T21:31:09.676Z,67.70
2022-11-17T21:33:36.887Z,67.70
2022-11-17T21:36:06.091Z,67.70
2022-11-17T21:38:32.813Z,67.70
2022-11-17T21:41:14.001Z,67.60
2022-11-17T21:43:41.967Z,67.60
2022-11-17T21:46:11.603Z,67.60
2022-11-17T21:48:38.838Z,67.60
2022-11-17T21:51:07.529Z,67.60
2022-11-17T21:53:34.142Z,67.60
2022-11-17T21:56:05.595Z,67.60
2022-11-17T21:58:33.317Z,69.50
2022-11-17T22:01:07.471Z,67.60
2022-11-17T22:03:34.485Z,67.60
2022-11-17T22:06:08.115Z,67.60
2022-11-17T22:08:36.679Z,67.00
2022-11-17T22:11:08.562Z,67.50
2022-11-17T22:13:35.561Z,67.50
2022-11-17T22:16:04.400Z,67.50
2022-11-17T22:18:31.166Z,67.50
2022-11-17T22:20:58.010Z,67.50
2022-11-17T22:23:24.618Z,67.40
2022-11-17T22:25:59.065Z,67.40
2022-11-17T22:28:27.027Z,67.40
2022-11-17T22:30:54.271Z,67.30
2022-11-17T22:33:22.215Z,67.40
2022-11-17T22:35:50.101Z,68.10
2022-11-17T22:38:17.138Z,67.30
2022-11-17T22:40:43.842Z,67.30
2022-11-17T22:43:14.922Z,67.30
2022-11-17T22:45:42.212Z,67.30
2022-11-17T22:48:08.990Z,67.30
2022-11-17T22:50:36.170Z,67.20
2022-11-17T22:53:03.142Z,67.30
2022-11-17T22:55:29.876Z,67.20
2022-11-17T22:57:56.525Z,67.30
2022-11-17T23:00:23.469Z,66.50
2022-11-17T23:02:50.251Z,67.10
2022-11-17T23:05:17.030Z,67.10
2022-11-17T23:07:43.859Z,67.10
2022-11-17T23:10:11.520Z,67.00
2022-11-17T23:12:38.400Z,67.10
2022-11-17T23:15:06.210Z,67.00
2022-11-17T23:17:32.845Z,67.10
2022-11-17T23:19:59.484Z,67.00
2022-11-17T23:22:26.135Z,67.00
2022-11-17T23:24:52.733Z,67.00
2022-11-17T23:27:19.385Z,67.00
2022-11-17T23:29:45.984Z,67.00
2022-11-17T23:32:12.601Z,67.00
2022-11-17T23:34:39.216Z,66.90
2022-11-17T23:37:05.816Z,67.00
2022-11-17T23:39:33.291Z,66.90
2022-11-17T23:41:59.892Z,66.90
2022-11-17T23:44:26.491Z,66.90
2022-11-17T23:46:53.115Z,66.90
2022-11-17T23:49:20.000Z,66.80
2022-11-17T23:51:46.799Z,66.80
2022-11-17T23:54:13.721Z,66.80
2022-11-17T23:56:40.352Z,66.80
2022-11-17T23:59:08.102Z,66.70
